Авиационная погода в Москва - Внуково

СКИДКИ НА СМАРТФОНЫ!

Погода METAR: 
UUWW 190400Z 07005MPS CAVOK 20/11 Q1023 R06/000070 NOSIG
Время наблюдения
2022-08-19T04:00:00Z
Температура C
20.0
Точка росы
11.0
Направление ветра
70
Скорость ветра (узлы)
10
Метео видимость
6.21
Облачность
CAVOK
Нижняя граница облачности (футы)
Явления погоды
Условия полета
VFR
Аэропорт подробнее: 

Скидки на навигаторы!